Time;durP1;ratioP1;P1;durP2;ratioP2;P2;SDS_P1;SDS_P2;PMS_P1;PMS_P2;Temp;Humidity;BMP_temperature;BMP_pressure;BME280_temperature;BME280_humidity;BME280_pressure;Samples;Min_cycle;Max_cycle;Signal;HPM_P1;HPM_P2
2022/04/08 00:00:07;;;;;;;11.85;6.03;;;;;;;11.80;78.52;98294.31;4898469;29;20553;-78
2022/04/08 00:02:38;;;;;;;10.48;5.90;;;;;;;11.78;79.11;98301.59;4898467;29;20402;-78
2022/04/08 00:05:08;;;;;;;10.18;5.93;;;;;;;11.72;79.05;98296.84;4898517;29;20064;-77
2022/04/08 00:07:36;;;;;;;9.48;6.03;;;;;;;11.67;79.48;98293.75;4881690;29;20463;-76
2022/04/08 00:10:06;;;;;;;11.35;6.30;;;;;;;11.68;79.43;98300.81;4898606;29;20120;-77
2022/04/08 00:12:35;;;;;;;13.80;6.03;;;;;;;11.69;79.66;98307.81;4881677;29;20486;-76
2022/04/08 00:15:05;;;;;;;9.88;5.82;;;;;;;11.76;79.18;98314.25;4881504;29;20057;-76
2022/04/08 00:17:33;;;;;;;9.10;5.78;;;;;;;11.72;79.41;98305.69;4881627;29;20116;-79
2022/04/08 00:20:01;;;;;;;10.63;6.30;;;;;;;11.74;79.57;98326.91;4898689;29;20509;-77
2022/04/08 00:22:30;;;;;;;10.52;5.85;;;;;;;11.78;79.21;98300.78;4898282;29;20121;-80
2022/04/08 00:24:59;;;;;;;10.23;6.10;;;;;;;11.95;78.10;98314.19;4881124;29;20135;-78
2022/04/08 00:27:27;;;;;;;8.43;5.60;;;;;;;11.92;77.99;98303.81;4898031;29;20055;-75
2022/04/08 00:29:55;;;;;;;7.90;4.95;;;;;;;11.89;77.95;98314.81;4898079;29;20048;-77
2022/04/08 00:32:26;;;;;;;12.95;5.35;;;;;;;11.89;78.07;98311.28;4898259;29;20053;-77
2022/04/08 00:34:55;;;;;;;9.80;5.60;;;;;;;11.84;78.22;98322.41;4899435;29;20068;-73
2022/04/08 00:37:23;;;;;;;11.07;5.50;;;;;;;11.84;78.85;98338.44;4901691;29;20045;-76
2022/04/08 00:39:51;;;;;;;9.40;6.10;;;;;;;11.90;78.52;98353.88;4885086;29;20104;-77
2022/04/08 00:42:19;;;;;;;8.27;5.80;;;;;;;11.83;79.15;98352.78;4902191;29;20443;-76
2022/04/08 00:44:50;;;;;;;9.25;5.45;;;;;;;11.79;79.44;98351.38;4901860;29;20041;-76
2022/04/08 00:47:18;;;;;;;9.75;5.72;;;;;;;11.84;79.38;98349.13;4901933;29;20048;-76
2022/04/08 00:49:48;;;;;;;11.45;5.97;;;;;;;11.87;79.03;98340.84;4901876;29;20057;-76
2022/04/08 00:52:16;;;;;;;12.77;5.70;;;;;;;11.93;78.10;98336.72;4901910;29;20399;-76
2022/04/08 00:54:46;;;;;;;8.90;5.72;;;;;;;11.84;79.16;98327.75;4884770;29;20476;-76
2022/04/08 00:57:14;;;;;;;10.23;5.68;;;;;;;11.86;79.04;98331.09;4884689;29;20052;-76
2022/04/08 00:59:43;;;;;;;7.43;5.28;;;;;;;11.91;78.41;98350.22;4901615;29;20054;-76
2022/04/08 01:02:11;;;;;;;10.20;5.72;;;;;;;11.88;78.34;98355.88;4901723;29;20080;-77
2022/04/08 01:04:40;;;;;;;8.52;5.85;;;;;;;11.85;78.81;98361.47;4901588;29;20048;-77
2022/04/08 01:07:09;;;;;;;8.10;5.65;;;;;;;12.01;77.47;98355.53;4901839;29;20409;-78
2022/04/08 01:09:38;;;;;;;9.30;6.40;;;;;;;11.85;78.05;98340.09;4901157;29;20099;-78
2022/04/08 01:12:07;;;;;;;10.93;6.05;;;;;;;11.80;78.42;98346.91;4901405;29;20049;-77
2022/04/08 01:14:38;;;;;;;11.30;6.78;;;;;;;11.68;78.98;98341.72;4901391;29;20054;-77
2022/04/08 01:17:06;;;;;;;11.38;6.72;;;;;;;11.55;80.08;98337.66;4901273;29;20048;-79
2022/04/08 01:19:35;;;;;;;10.13;7.10;;;;;;;11.46;80.92;98345.53;4900605;29;20387;-78
2022/04/08 01:22:03;;;;;;;13.10;7.55;;;;;;;11.46;81.20;98348.22;4884098;29;20120;-77
2022/04/08 01:24:37;;;;;;;12.10;6.90;;;;;;;11.49;81.36;98354.28;4901058;29;20044;-78
2022/04/08 01:27:06;;;;;;;;;;;;;;;11.46;81.50;98356.22;4901464;29;20064;-78
2022/04/08 01:29:37;;;;;;;10.45;6.80;;;;;;;11.43;81.84;98356.50;4900749;29;20150;-78
2022/04/08 01:32:06;;;;;;;10.73;6.43;;;;;;;11.46;82.10;98382.91;4901036;29;20505;-78
2022/04/08 01:34:34;;;;;;;11.35;6.32;;;;;;;11.51;81.58;98392.34;4901061;29;20056;-77
2022/04/08 01:37:02;;;;;;;10.43;6.57;;;;;;;11.55;81.44;98396.41;4900986;29;20051;-77
2022/04/08 01:39:31;;;;;;;11.10;6.60;;;;;;;11.56;81.20;98403.41;4900684;29;20123;-77
2022/04/08 01:41:59;;;;;;;15.02;6.78;;;;;;;11.63;80.52;98400.03;4900894;29;20051;-76
2022/04/08 01:44:28;;;;;;;10.15;6.47;;;;;;;11.89;78.77;98400.28;4900583;29;20053;-78
2022/04/08 01:46:57;;;;;;;10.02;6.55;;;;;;;11.91;78.68;98403.66;4900494;29;20482;-75
2022/04/08 01:49:25;;;;;;;10.93;7.28;;;;;;;11.79;79.10;98423.50;4900662;29;20534;-75
2022/04/08 01:51:55;;;;;;;15.48;7.65;;;;;;;11.63;80.90;98433.91;4883786;29;20481;-75
2022/04/08 01:54:24;;;;;;;13.48;7.05;;;;;;;11.53;81.56;98435.75;4900389;29;20116;-74
2022/04/08 01:56:52;;;;;;;10.15;6.57;;;;;;;11.54;81.24;98432.09;4900834;29;20044;-75
2022/04/08 01:59:20;;;;;;;9.75;6.20;;;;;;;11.54;81.59;98432.94;4900174;29;20074;-75
2022/04/08 02:01:50;;;;;;;10.68;6.60;;;;;;;11.64;80.62;98427.59;4883840;29;20143;-75
2022/04/08 02:04:18;;;;;;;16.27;7.25;;;;;;;11.60;80.74;98428.88;4900184;29;20063;-75
2022/04/08 02:06:46;;;;;;;10.85;6.38;;;;;;;11.59;80.93;98424.50;4883835;29;20131;-75
2022/04/08 02:09:15;;;;;;;10.18;5.97;;;;;;;11.53;81.69;98425.06;4900286;29;20521;-75
2022/04/08 02:11:43;;;;;;;9.43;5.65;;;;;;;11.49;81.73;98429.88;4899988;29;20474;-76
2022/04/08 02:14:12;;;;;;;10.18;5.80;;;;;;;11.42;82.17;98428.75;4899848;29;20048;-74
2022/04/08 02:16:40;;;;;;;8.35;5.32;;;;;;;11.38;82.73;98436.16;4899961;29;20405;-75
2022/04/08 02:19:10;;;;;;;10.77;5.97;;;;;;;11.43;83.00;98452.63;4900109;29;20131;-76
2022/04/08 02:21:38;;;;;;;11.80;6.00;;;;;;;11.42;83.46;98458.94;4883115;29;20510;-78
2022/04/08 02:24:08;;;;;;;15.43;6.32;;;;;;;11.41;83.21;98464.44;4899751;29;20060;-78
2022/04/08 02:26:36;;;;;;;10.55;5.68;;;;;;;11.39;83.39;98471.75;4899729;29;20049;-78
2022/04/08 02:29:04;;;;;;;11.57;5.55;;;;;;;11.41;83.42;98467.94;4900364;29;20048;-77
2022/04/08 02:31:32;;;;;;;8.98;5.30;;;;;;;11.44;82.43;98462.31;4899932;29;20049;-78
2022/04/08 02:34:01;;;;;;;10.70;5.43;;;;;;;11.44;82.52;98443.63;4900144;29;20061;-78
2022/04/08 02:36:30;;;;;;;12.52;5.57;;;;;;;11.54;82.13;98437.44;4882792;29;20482;-78
2022/04/08 02:38:59;;;;;;;8.30;5.00;;;;;;;11.53;82.19;98441.09;4899944;29;20048;-78
2022/04/08 02:41:28;;;;;;;8.27;5.13;;;;;;;11.43;82.16;98447.28;4899671;29;20136;-77
2022/04/08 02:43:56;;;;;;;9.02;5.18;;;;;;;11.36;82.65;98450.66;4899552;29;20053;-77
2022/04/08 02:46:24;;;;;;;9.98;5.30;;;;;;;11.30;82.68;98465.41;4899226;29;20056;-77
2022/04/08 02:48:52;;;;;;;8.65;5.05;;;;;;;11.27;83.96;98473.69;4899603;29;20494;-75
2022/04/08 02:51:20;;;;;;;8.40;4.72;;;;;;;11.18;84.81;98470.03;4899182;29;20045;-78
2022/04/08 02:53:50;;;;;;;8.90;5.10;;;;;;;11.28;83.89;98485.19;4899238;29;20132;-77
2022/04/08 02:56:18;;;;;;;9.85;5.32;;;;;;;11.30;84.24;98493.94;4899232;29;20064;-77
2022/04/08 02:58:48;;;;;;;8.57;5.18;;;;;;;11.35;83.29;98503.19;4899010;29;20049;-75
2022/04/08 03:01:17;;;;;;;9.05;4.47;;;;;;;11.55;80.76;98519.22;4899289;29;20104;-77
2022/04/08 03:03:45;;;;;;;5.65;3.50;;;;;;;12.07;73.08;98525.13;4898948;29;20044;-77
2022/04/08 03:06:13;;;;;;;6.22;3.03;;;;;;;12.44;69.97;98534.00;4899236;29;20112;-76
2022/04/08 03:08:41;;;;;;;6.38;2.50;;;;;;;12.60;68.86;98549.47;4899100;29;20422;-75
2022/04/08 03:11:11;;;;;;;6.78;3.20;;;;;;;12.76;67.80;98538.16;4898929;29;20068;-77
2022/04/08 03:13:39;;;;;;;5.93;2.72;;;;;;;12.74;68.11;98534.75;4898673;29;20052;-78
2022/04/08 03:16:07;;;;;;;5.57;2.70;;;;;;;12.83;67.26;98555.28;4899139;29;20045;-74
2022/04/08 03:18:36;;;;;;;6.75;2.97;;;;;;;12.88;67.48;98558.34;4898619;29;20174;-75
2022/04/08 03:21:04;;;;;;;5.10;2.50;;;;;;;12.88;66.96;98553.00;4898946;29;20053;-76
2022/04/08 03:23:32;;;;;;;5.88;2.70;;;;;;;12.81;67.31;98558.09;4898424;29;20060;-79
2022/04/08 03:26:01;;;;;;;3.80;2.08;;;;;;;12.91;67.68;98571.44;4898887;29;20368;-77
2022/04/08 03:28:31;;;;;;;3.65;1.60;;;;;;;12.92;67.84;98574.94;4898794;29;20546;-77
2022/04/08 03:31:02;;;;;;;4.53;1.70;;;;;;;12.95;67.45;98582.72;4898782;29;20048;-77
2022/04/08 03:33:30;;;;;;;2.72;1.42;;;;;;;12.95;67.76;98591.56;4898594;29;20063;-78
2022/04/08 03:35:58;;;;;;;5.05;1.80;;;;;;;13.04;66.90;98601.41;4882100;29;20048;-78
2022/04/08 03:38:26;;;;;;;4.30;1.73;;;;;;;12.99;67.83;98616.19;4898668;29;20056;-78
2022/04/08 03:40:55;;;;;;;4.78;1.70;;;;;;;12.97;68.19;98613.69;4898858;29;20459;-79
2022/04/08 03:43:23;;;;;;;2.85;1.60;;;;;;;12.90;68.43;98620.59;4881748;29;20056;-76
2022/04/08 03:45:53;;;;;;;4.30;1.80;;;;;;;12.93;68.82;98633.66;4898587;29;20055;-77
2022/04/08 03:48:21;;;;;;;5.18;2.00;;;;;;;12.82;69.68;98634.69;4898587;29;20076;-78
2022/04/08 03:50:49;;;;;;;4.70;1.95;;;;;;;12.83;70.71;98654.28;4898711;29;20079;-77
2022/04/08 03:53:17;;;;;;;5.10;1.90;;;;;;;12.76;71.93;98658.53;4898293;29;20055;-78
2022/04/08 03:55:46;;;;;;;2.50;1.30;;;;;;;12.74;72.77;98681.88;4898316;29;21332;-76
2022/04/08 03:58:14;;;;;;;4.22;1.40;;;;;;;12.60;74.89;98677.84;4881370;29;20558;-78
2022/04/08 04:00:43;;;;;;;3.92;1.10;;;;;;;12.49;77.27;98684.19;4898397;29;20044;-76
2022/04/08 04:03:13;;;;;;;5.30;1.40;;;;;;;12.40;78.70;98686.88;4898621;29;20473;-76
2022/04/08 04:05:44;;;;;;;3.10;1.15;;;;;;;12.42;79.14;98680.41;4898223;29;20048;-77
2022/04/08 04:08:15;;;;;;;2.45;0.90;;;;;;;12.29;80.61;98679.84;4881395;29;20059;-76
2022/04/08 04:10:43;;;;;;;2.78;1.20;;;;;;;12.20;81.50;98672.66;4897305;29;20463;-76
2022/04/08 04:13:12;;;;;;;2.40;1.10;;;;;;;12.10;82.15;98690.53;4898372;29;20460;-76
2022/04/08 04:15:40;;;;;;;1.52;1.00;;;;;;;12.05;83.02;98672.22;4897949;29;20537;-76
2022/04/08 04:18:09;;;;;;;2.85;1.10;;;;;;;11.96;83.41;98649.03;4898268;29;20061;-76
2022/04/08 04:20:39;;;;;;;2.20;0.88;;;;;;;12.16;81.79;98653.41;4897862;29;20048;-77
2022/04/08 04:23:07;;;;;;;4.05;1.13;;;;;;;12.00;82.65;98632.59;4881122;29;20144;-75
2022/04/08 04:25:35;;;;;;;1.98;0.98;;;;;;;11.95;81.35;98644.66;4897660;29;20044;-76
2022/04/08 04:28:04;;;;;;;2.58;0.90;;;;;;;12.02;79.80;98654.66;4881670;29;20055;-75
2022/04/08 04:30:33;;;;;;;1.35;0.60;;;;;;;12.13;73.65;98652.81;4880683;29;20052;-78
2022/04/08 04:33:02;;;;;;;1.38;0.82;;;;;;;12.18;73.07;98662.13;4880654;29;20071;-77
2022/04/08 04:35:30;;;;;;;1.70;0.90;;;;;;;12.23;72.60;98665.22;4880820;29;20052;-77
2022/04/08 04:37:59;;;;;;;1.95;0.60;;;;;;;12.25;71.86;98668.56;4897780;29;20049;-77
2022/04/08 04:40:28;;;;;;;1.77;0.70;;;;;;;12.20;72.51;98653.97;4880822;29;20125;-75
2022/04/08 04:42:57;;;;;;;2.05;0.80;;;;;;;12.21;70.02;98661.00;4881317;29;20055;-77
2022/04/08 04:45:25;;;;;;;1.20;0.50;;;;;;;12.26;66.30;98666.78;4881544;29;20052;-77
2022/04/08 04:47:53;;;;;;;2.17;0.90;;;;;;;12.29;64.79;98669.16;4898175;29;20191;-79
2022/04/08 04:50:22;;;;;;;2.05;0.80;;;;;;;12.29;64.90;98642.41;4881366;29;20052;-77
2022/04/08 04:52:56;;;;;;;1.65;0.68;;;;;;;12.18;58.83;98650.59;4898211;29;20409;-73
2022/04/08 04:55:25;;;;;;;2.78;0.65;;;;;;;12.18;60.27;98655.94;4897897;29;20047;-78
2022/04/08 04:57:54;;;;;;;5.13;0.90;;;;;;;12.16;60.23;98652.53;4898111;29;20041;-75
2022/04/08 05:00:22;;;;;;;3.13;0.80;;;;;;;12.19;59.08;98665.66;4898009;29;20047;-77
2022/04/08 05:02:51;;;;;;;2.70;0.70;;;;;;;12.20;57.80;98656.63;4881228;29;20061;-77
2022/04/08 05:05:19;;;;;;;3.20;0.77;;;;;;;12.15;59.36;98666.88;4897965;29;20045;-78
2022/04/08 05:07:47;;;;;;;1.45;0.63;;;;;;;12.04;58.19;98676.72;4898050;29;20049;-78
2022/04/08 05:10:16;;;;;;;3.70;0.90;;;;;;;12.08;60.22;98682.66;4881584;29;20053;-78
2022/04/08 05:12:46;;;;;;;3.47;0.65;;;;;;;12.04;58.60;98683.91;4880673;29;20124;-76
2022/04/08 05:15:15;;;;;;;2.95;0.80;;;;;;;12.11;55.23;98677.03;4897664;29;20044;-75
2022/04/08 05:17:45;;;;;;;3.53;1.00;;;;;;;12.24;52.74;98684.75;4880992;29;20048;-75
2022/04/08 05:20:14;;;;;;;3.10;1.02;;;;;;;12.27;49.80;98692.53;4897882;29;20056;-76
2022/04/08 05:22:44;;;;;;;2.97;0.93;;;;;;;12.32;50.03;98706.28;4901032;29;20398;-77
2022/04/08 05:25:12;;;;;;;2.38;0.95;;;;;;;12.38;48.58;98692.38;4901373;29;20044;-76
2022/04/08 05:27:42;;;;;;;4.55;1.10;;;;;;;12.48;48.49;98700.38;4883023;29;20117;-75
2022/04/08 05:30:17;;;;;;;3.60;1.00;;;;;;;12.54;46.89;98719.38;4900437;29;20095;-76
2022/04/08 05:32:46;;;;;;;5.30;1.00;;;;;;;12.44;46.48;98726.56;4883709;29;20562;-76
2022/04/08 05:35:15;;;;;;;4.07;1.15;;;;;;;12.43;48.14;98710.66;4900889;29;20046;-76
2022/04/08 05:37:45;;;;;;;5.22;1.55;;;;;;;12.39;49.45;98718.13;4883233;29;20104;-76
2022/04/08 05:40:15;;;;;;;5.00;1.13;;;;;;;12.43;47.40;98730.22;4900277;29;20049;-78
2022/04/08 05:42:44;;;;;;;3.50;1.23;;;;;;;12.36;48.28;98734.47;4883204;29;20148;-77
2022/04/08 05:45:16;;;;;;;3.78;1.08;;;;;;;12.36;48.57;98745.16;4900084;29;20079;-77
2022/04/08 05:47:47;;;;;;;7.03;1.25;;;;;;;12.39;49.43;98752.88;4900272;29;20538;-76
2022/04/08 05:50:15;;;;;;;3.17;0.98;;;;;;;12.34;47.13;98752.44;4884008;29;20469;-77
2022/04/08 05:52:45;;;;;;;3.70;1.13;;;;;;;12.33;46.21;98751.59;4883457;29;20048;-75
2022/04/08 05:55:13;;;;;;;5.30;1.30;;;;;;;12.32;47.11;98765.13;4883744;29;20064;-77
2022/04/08 05:57:41;;;;;;;6.72;1.30;;;;;;;12.37;45.96;98751.34;4883394;29;20091;-77
2022/04/08 06:00:13;;;;;;;3.88;0.90;;;;;;;12.32;45.02;98746.41;4883774;29;20140;-77
2022/04/08 06:02:45;;;;;;;3.78;1.27;;;;;;;12.34;45.52;98752.44;4883564;29;20498;-77
2022/04/08 06:05:15;;;;;;;5.30;1.03;;;;;;;12.30;44.73;98772.44;4900504;29;20053;-79
2022/04/08 06:07:50;;;;;;;4.38;1.30;;;;;;;12.30;45.81;98788.47;4883255;29;20124;-76
2022/04/08 06:10:21;;;;;;;2.53;0.95;;;;;;;12.26;46.33;98797.78;4883340;29;20044;-76
2022/04/08 06:12:50;;;;;;;2.83;1.10;;;;;;;12.24;47.67;98789.00;4900088;29;20048;-79
2022/04/08 06:15:19;;;;;;;5.40;1.23;;;;;;;12.16;47.45;98795.06;4900313;29;20045;-78
2022/04/08 06:17:49;;;;;;;4.78;1.35;;;;;;;12.23;47.61;98819.41;4899797;29;20044;-77
2022/04/08 06:20:19;;;;;;;4.07;1.35;;;;;;;12.19;47.07;98807.31;4900327;29;20123;-76
2022/04/08 06:22:48;;;;;;;4.05;1.25;;;;;;;12.32;45.12;98829.28;4899969;29;20439;-76
2022/04/08 06:25:18;;;;;;;0.65;0.57;;;;;;;12.41;44.08;98849.84;4883153;29;20491;-77
2022/04/08 06:27:56;;;;;;;3.10;1.10;;;;;;;12.51;44.31;98840.00;4899615;29;20052;-77
2022/04/08 06:30:25;;;;;;;5.07;0.98;;;;;;;12.57;43.38;98852.00;4899874;29;20040;-77
2022/04/08 06:32:55;;;;;;;3.00;0.77;;;;;;;12.46;43.01;98862.81;4898770;29;20040;-77
2022/04/08 06:35:26;;;;;;;4.03;1.00;;;;;;;12.62;42.76;98855.09;4899570;29;20044;-75
2022/04/08 06:37:59;;;;;;;5.38;1.20;;;;;;;12.83;42.54;98849.59;4900135;29;20045;-81
2022/04/08 06:40:28;;;;;;;4.85;1.25;;;;;;;12.93;43.26;98855.78;4899469;29;20040;-77
2022/04/08 06:42:59;;;;;;;6.65;1.27;;;;;;;12.91;43.75;98868.47;4898874;29;20442;-77
2022/04/08 06:45:27;;;;;;;4.78;1.38;;;;;;;12.93;43.10;98874.53;4899130;29;20063;-77
2022/04/08 06:47:57;;;;;;;6.30;1.40;;;;;;;13.13;42.21;98884.28;4882622;29;20111;-79
2022/04/08 06:50:26;;;;;;;4.75;1.10;;;;;;;13.18;42.50;98882.00;4899658;29;20067;-79
2022/04/08 06:52:59;;;;;;;3.53;0.95;;;;;;;13.20;41.97;98894.44;4899291;29;20053;-78
2022/04/08 06:55:28;;;;;;;4.82;1.30;;;;;;;13.16;41.72;98910.75;4899079;29;20048;-79
2022/04/08 06:57:58;;;;;;;3.67;1.30;;;;;;;13.14;42.04;98896.69;4899326;29;20443;-78
2022/04/08 07:00:27;;;;;;;4.70;1.38;;;;;;;13.15;40.94;98893.00;4882703;29;20049;-78
2022/04/08 07:02:57;;;;;;;3.33;1.30;;;;;;;13.23;41.54;98897.69;4898964;29;20075;-78
2022/04/08 07:05:26;;;;;;;5.63;1.20;;;;;;;13.26;41.73;98899.22;4899130;29;20107;-77
2022/04/08 07:07:54;;;;;;;6.70;1.30;;;;;;;13.45;41.20;98904.56;4881645;29;20179;-79
2022/04/08 07:10:23;;;;;;;4.40;1.13;;;;;;;13.62;40.99;98897.66;4881985;29;20049;-78
2022/04/08 07:12:51;;;;;;;5.00;1.40;;;;;;;13.53;40.92;98907.38;4881965;29;20060;-78
2022/04/08 07:15:19;;;;;;;5.22;1.35;;;;;;;13.43;41.48;98914.59;4898636;29;20045;-78
2022/04/08 07:17:48;;;;;;;5.10;1.48;;;;;;;13.49;42.09;98905.13;4898794;29;20049;-78
2022/04/08 07:20:18;;;;;;;3.53;1.25;;;;;;;13.50;41.53;98893.41;4898544;29;20060;-77
2022/04/08 07:22:48;;;;;;;6.55;1.33;;;;;;;13.48;40.96;98898.91;4898265;29;20074;-77
2022/04/08 07:25:17;;;;;;;5.72;1.40;;;;;;;13.71;42.15;98908.34;4898303;29;20128;-77
2022/04/08 07:27:47;;;;;;;4.10;1.27;;;;;;;13.70;42.26;98916.50;4897983;29;20180;-78
2022/04/08 07:30:19;;;;;;;5.90;1.80;;;;;;;13.72;41.85;98925.25;4881699;29;20412;-76
2022/04/08 07:32:50;;;;;;;5.38;1.40;;;;;;;13.75;40.65;98933.84;4898168;29;20064;-78
2022/04/08 07:35:21;;;;;;;5.18;1.25;;;;;;;13.77;39.17;98962.31;4898880;29;20075;-77
2022/04/08 07:37:49;;;;;;;5.07;1.00;;;;;;;13.66;40.02;98940.06;4898789;29;20398;-78
2022/04/08 07:40:17;;;;;;;5.57;1.42;;;;;;;13.89;39.07;98945.09;4881807;29;20079;-77
2022/04/08 07:42:46;;;;;;;4.70;1.00;;;;;;;14.01;39.40;98935.91;4898377;29;20076;-77
2022/04/08 07:45:17;;;;;;;3.78;1.20;;;;;;;14.08;39.26;98953.06;4881449;29;20517;-77
2022/04/08 07:47:45;;;;;;;3.45;0.90;;;;;;;14.16;39.55;98963.06;4898284;29;20056;-77
2022/04/08 07:50:15;;;;;;;3.42;1.02;;;;;;;14.11;37.67;98960.84;4881602;29;20056;-76
2022/04/08 07:52:45;;;;;;;4.60;0.95;;;;;;;13.83;36.66;98941.16;4881500;29;20451;-78
2022/04/08 07:55:13;;;;;;;7.65;1.10;;;;;;;13.84;36.93;98952.72;4898260;29;20049;-78
2022/04/08 07:57:46;;;;;;;4.82;1.15;;;;;;;13.67;37.48;98968.53;4898205;29;20470;-77
2022/04/08 08:00:15;;;;;;;4.32;1.25;;;;;;;13.68;36.58;98966.72;4898743;29;20068;-78
2022/04/08 08:02:44;;;;;;;3.20;1.10;;;;;;;13.72;36.58;98982.38;4881619;29;20064;-77
2022/04/08 08:05:13;;;;;;;4.00;0.90;;;;;;;13.85;36.38;98957.94;4882158;29;20083;-77
2022/04/08 08:07:48;;;;;;;5.32;1.08;;;;;;;13.91;37.21;98960.06;4881683;29;20112;-78
2022/04/08 08:10:18;;;;;;;2.55;0.80;;;;;;;13.75;37.29;98966.00;4881574;29;20490;-78
2022/04/08 08:12:46;;;;;;;4.95;1.30;;;;;;;13.79;37.31;98963.03;4881539;29;20055;-77
2022/04/08 08:15:16;;;;;;;3.60;1.17;;;;;;;13.74;36.94;98952.75;4881100;29;20072;-78
2022/04/08 08:17:47;;;;;;;2.28;0.93;;;;;;;13.82;37.41;98954.72;4880988;29;20093;-78
2022/04/08 08:20:17;;;;;;;2.88;0.90;;;;;;;13.87;37.08;98952.44;4897944;29;20056;-79
2022/04/08 08:22:51;;;;;;;2.70;0.87;;;;;;;13.83;36.55;98962.59;4897787;29;20135;-78
2022/04/08 08:25:21;;;;;;;4.15;0.90;;;;;;;13.82;35.35;98962.75;4881668;29;20060;-79
2022/04/08 08:27:52;;;;;;;1.77;0.68;;;;;;;13.70;37.16;98960.25;4881132;29;20140;-76
2022/04/08 08:30:21;;;;;;;5.00;1.00;;;;;;;14.00;37.42;98985.16;4898478;29;20482;-77
2022/04/08 08:32:51;;;;;;;2.95;0.88;;;;;;;13.93;36.34;99000.13;4897770;29;20394;-78
2022/04/08 08:35:20;;;;;;;3.95;1.00;;;;;;;14.02;36.79;99008.13;4897647;29;20131;-78
2022/04/08 08:37:50;;;;;;;3.15;1.10;;;;;;;13.96;36.52;99016.75;4881061;29;20052;-76
2022/04/08 08:40:19;;;;;;;3.42;1.02;;;;;;;14.12;36.56;99026.88;4898067;29;20435;-78
2022/04/08 08:42:49;;;;;;;2.47;0.88;;;;;;;14.23;36.24;99024.03;4881035;29;20097;-78
2022/04/08 08:45:18;;;;;;;4.43;1.15;;;;;;;14.49;35.48;99007.34;4881360;29;20502;-78
2022/04/08 08:47:48;;;;;;;2.58;1.10;;;;;;;14.40;35.11;99008.19;4897632;29;20080;-76
2022/04/08 08:50:18;;;;;;;3.97;1.00;;;;;;;14.52;35.90;99017.75;4897967;29;20045;-78
2022/04/08 08:52:51;;;;;;;3.60;1.05;;;;;;;14.73;34.50;99026.44;4897692;29;20475;-78
2022/04/08 08:55:20;;;;;;;4.40;1.20;;;;;;;14.64;35.61;99031.84;4897170;29;20546;-77
2022/04/08 08:57:49;;;;;;;3.67;1.10;;;;;;;14.68;32.89;99015.31;4901353;29;20044;-78
2022/04/08 09:00:19;;;;;;;4.45;1.10;;;;;;;14.61;32.87;99032.97;4901023;29;20055;-78
2022/04/08 09:02:49;;;;;;;5.03;0.95;;;;;;;14.60;31.80;99017.88;4901453;29;20051;-78
2022/04/08 09:05:19;;;;;;;4.20;0.90;;;;;;;14.50;31.18;99017.06;4884858;29;20053;-77
2022/04/08 09:07:55;;;;;;;4.82;1.17;;;;;;;14.59;31.95;99035.81;4901485;29;20045;-79
2022/04/08 09:10:28;;;;;;;4.45;1.20;;;;;;;14.52;32.02;99044.59;4884519;29;20059;-78
2022/04/08 09:12:58;;;;;;;3.60;1.10;;;;;;;14.55;31.25;99055.03;4901125;29;20131;-79
2022/04/08 09:15:27;;;;;;;6.35;1.40;;;;;;;14.47;32.43;99041.50;4901042;29;20401;-76
2022/04/08 09:18:05;;;;;;;3.72;0.95;;;;;;;14.55;31.44;99046.97;4884233;29;20059;-79
2022/04/08 09:20:42;;;;;;;5.15;1.08;;;;;;;14.62;32.19;99033.81;4901239;29;20053;-78
2022/04/08 09:23:12;;;;;;;2.78;0.63;;;;;;;14.64;31.25;99031.84;4900710;29;20072;-78
2022/04/08 09:25:41;;;;;;;5.53;1.10;;;;;;;14.56;31.76;99033.41;4884261;29;20060;-79
2022/04/08 09:28:11;;;;;;;3.55;1.05;;;;;;;14.50;32.65;99033.16;4884127;29;20048;-79
2022/04/08 09:30:40;;;;;;;3.42;0.90;;;;;;;14.70;32.83;99037.47;4901244;29;20040;-78
2022/04/08 09:33:13;;;;;;;5.57;1.13;;;;;;;14.87;32.06;99044.75;4900578;29;20056;-78
2022/04/08 09:35:41;;;;;;;;;;;;;;;15.03;32.34;99037.88;4884007;29;20062;-79
2022/04/08 09:38:11;;;;;;;6.60;1.30;;;;;;;15.26;32.24;99054.44;4883450;29;20407;-78
2022/04/08 09:40:42;;;;;;;3.88;1.20;;;;;;;15.20;30.91;99074.66;4900599;29;20108;-78
2022/04/08 09:43:12;;;;;;;2.92;0.80;;;;;;;15.46;31.46;99050.59;4883398;29;20091;-79
2022/04/08 09:45:40;;;;;;;3.45;0.95;;;;;;;15.61;30.89;99040.19;4883859;29;20139;-77
2022/04/08 09:48:09;;;;;;;3.75;0.90;;;;;;;15.73;30.62;99042.50;4883178;29;20071;-77
2022/04/08 09:50:40;;;;;;;4.97;1.27;;;;;;;15.43;30.69;99038.31;4900253;29;20423;-76
2022/04/08 09:53:12;;;;;;;3.47;1.10;;;;;;;15.39;31.16;99041.47;4900119;29;20041;-77
2022/04/08 09:55:44;;;;;;;3.17;1.08;;;;;;;15.14;30.42;99024.22;4883412;29;20135;-78
2022/04/08 09:58:14;;;;;;;3.72;1.02;;;;;;;15.15;30.86;99016.03;4900108;29;20495;-78
2022/04/08 10:00:46;;;;;;;4.90;1.10;;;;;;;15.19;31.21;99021.94;4883341;29;20088;-76
2022/04/08 10:03:14;;;;;;;4.47;1.02;;;;;;;15.04;30.94;99007.31;4900267;29;20435;-79
2022/04/08 10:05:43;;;;;;;4.22;1.17;;;;;;;15.21;30.87;99013.72;4883589;29;20053;-78
2022/04/08 10:08:12;;;;;;;4.32;1.00;;;;;;;15.23;31.03;99034.06;4899873;29;20504;-79
2022/04/08 10:10:49;;;;;;;3.72;0.80;;;;;;;15.14;30.96;99046.56;4883511;29;20084;-78
2022/04/08 10:13:32;;;;;;;4.82;1.20;;;;;;;15.08;31.21;99046.31;4899686;29;20068;-77
2022/04/08 10:16:09;;;;;;;2.88;1.02;;;;;;;15.26;31.85;99028.41;4882869;29;20091;-77
2022/04/08 10:18:40;;;;;;;3.35;0.90;;;;;;;15.34;31.44;99049.13;4899816;29;20041;-78
2022/04/08 10:21:10;;;;;;;3.47;0.98;;;;;;;15.17;31.90;99034.69;4899340;29;20131;-78
2022/04/08 10:23:39;;;;;;;1.50;0.68;;;;;;;15.18;31.26;99042.59;4899245;29;20079;-78
2022/04/08 10:26:20;;;;;;;3.53;1.00;;;;;;;15.30;31.80;99039.69;4899334;29;20447;-78
2022/04/08 10:28:49;;;;;;;3.45;1.20;;;;;;;15.63;31.98;99032.81;4882728;29;20060;-76
2022/04/08 10:31:22;;;;;;;2.70;0.90;;;;;;;15.59;30.97;99026.03;4882516;29;20518;-78
2022/04/08 10:33:56;;;;;;;1.65;0.77;;;;;;;15.62;30.52;99029.28;4899094;29;20135;-76
2022/04/08 10:36:33;;;;;;;3.00;0.98;;;;;;;15.68;31.07;99023.28;4899342;29;20079;-77
2022/04/08 10:39:15;;;;;;;3.00;0.90;;;;;;;15.95;31.61;99016.97;4899653;29;20075;-77
2022/04/08 10:41:50;;;;;;;5.95;1.08;;;;;;;15.93;31.06;99027.06;4899636;29;20096;-78
2022/04/08 10:44:31;;;;;;;1.58;0.70;;;;;;;15.79;30.87;99008.78;4898947;29;20132;-77
2022/04/08 10:47:02;;;;;;;3.67;1.02;;;;;;;15.89;30.55;99022.97;4882422;29;20056;-78
2022/04/08 10:49:32;;;;;;;2.63;1.00;;;;;;;16.05;30.36;99016.03;4883136;29;20052;-78
2022/04/08 10:52:00;;;;;;;3.40;1.10;;;;;;;16.24;30.59;99018.53;4899328;29;20131;-77
2022/04/08 10:54:38;;;;;;;1.35;0.63;;;;;;;16.14;29.80;99028.53;4899038;29;20076;-78
2022/04/08 10:57:08;;;;;;;2.28;0.60;;;;;;;15.82;30.40;99021.88;4898458;29;20128;-77
2022/04/08 10:59:36;;;;;;;1.38;0.75;;;;;;;15.99;30.50;99021.03;4882451;29;20517;-79
2022/04/08 11:02:10;;;;;;;3.72;0.93;;;;;;;16.00;30.51;99033.47;4898940;29;20052;-78
2022/04/08 11:04:39;;;;;;;1.90;0.63;;;;;;;16.08;30.36;99038.06;4899421;29;20072;-77
2022/04/08 11:07:07;;;;;;;5.85;1.10;;;;;;;16.27;30.88;99039.72;4899026;29;20482;-77
2022/04/08 11:09:36;;;;;;;3.28;0.93;;;;;;;16.23;31.34;99041.91;4899059;29;20048;-78
2022/04/08 11:12:05;;;;;;;1.60;0.70;;;;;;;16.08;31.58;99023.78;4882405;29;20109;-77
2022/04/08 11:14:35;;;;;;;2.65;0.77;;;;;;;16.02;30.97;99020.72;4899382;29;20064;-77
2022/04/08 11:17:03;;;;;;;2.40;0.90;;;;;;;16.11;30.74;99023.47;4899099;29;20049;-79
2022/04/08 11:19:32;;;;;;;4.07;0.90;;;;;;;16.20;31.44;99020.66;4898715;29;20040;-78
2022/04/08 11:22:00;;;;;;;4.47;0.93;;;;;;;16.30;31.10;99012.50;4882309;29;20135;-77
2022/04/08 11:24:35;;;;;;;5.47;1.05;;;;;;;16.36;31.73;99021.78;4882322;29;20447;-76
2022/04/08 11:27:04;;;;;;;2.88;0.90;;;;;;;16.43;31.92;99034.47;4882122;29;20140;-77
2022/04/08 11:29:32;;;;;;;6.55;1.02;;;;;;;16.33;31.79;99031.03;4881692;29;20044;-77
2022/04/08 11:32:10;;;;;;;1.55;0.60;;;;;;;16.44;32.25;99025.38;4881605;29;20112;-76
2022/04/08 11:34:40;;;;;;;2.90;0.90;;;;;;;16.54;32.37;99034.19;4898900;29;20060;-78
2022/04/08 11:37:08;;;;;;;2.78;0.90;;;;;;;16.10;32.30;99032.53;4898157;29;20045;-78
2022/04/08 11:39:40;;;;;;;2.08;1.05;;;;;;;16.09;32.42;99031.69;4899014;29;20490;-78
2022/04/08 11:42:08;;;;;;;3.20;0.90;;;;;;;16.16;32.44;99031.91;4898579;29;20430;-76